createdAt,value
2019-03-30T00:00:55.109Z,7.050781
2019-03-30T00:02:08.867Z,7.04071
2019-03-30T00:03:22.601Z,7.03064
2019-03-30T00:04:36.347Z,7.000427
2019-03-30T00:05:50.117Z,6.970215
2019-03-30T00:07:03.874Z,6.960144
2019-03-30T00:08:17.658Z,6.929932
2019-03-30T00:09:31.399Z,6.889648
2019-03-30T00:10:45.186Z,6.859436
2019-03-30T00:11:58.921Z,6.829224
2019-03-30T00:13:12.689Z,6.799011
2019-03-30T00:14:26.449Z,6.748657
2019-03-30T00:15:40.201Z,6.708374
2019-03-30T00:16:53.960Z,6.647949
2019-03-30T00:18:07.708Z,6.597595
2019-03-30T00:19:34.334Z,6.567383
2019-03-30T00:20:36.267Z,6.5271
2019-03-30T00:21:50.019Z,6.517029
2019-03-30T00:23:03.774Z,6.517029
2019-03-30T00:24:17.535Z,6.486816
2019-03-30T00:25:31.313Z,6.486816
2019-03-30T00:26:45.096Z,6.456604
2019-03-30T00:27:58.850Z,6.436462
2019-03-30T00:29:12.597Z,6.426392
2019-03-30T00:30:26.322Z,6.40625
2019-03-30T00:31:40.086Z,6.40625
2019-03-30T00:32:53.911Z,6.40625
2019-03-30T00:34:07.668Z,6.386108
2019-03-30T00:35:21.478Z,6.376038
2019-03-30T00:36:35.240Z,6.335754
2019-03-30T00:37:48.999Z,6.305542
2019-03-30T00:39:02.756Z,6.2854
2019-03-30T00:40:16.537Z,6.255188
2019-03-30T00:41:30.367Z,6.255188
2019-03-30T00:42:44.101Z,6.224976
2019-03-30T00:43:57.863Z,6.245117
2019-03-30T00:45:11.613Z,6.224976
2019-03-30T00:46:25.383Z,6.245117
2019-03-30T00:47:39.142Z,6.245117
2019-03-30T00:48:52.926Z,6.27533
2019-03-30T00:50:06.683Z,6.2854
2019-03-30T00:51:20.498Z,6.27533
2019-03-30T00:52:34.250Z,6.2854
2019-03-30T00:53:48.007Z,6.27533
2019-03-30T00:55:01.798Z,6.245117
2019-03-30T00:56:15.564Z,6.224976
2019-03-30T00:57:29.311Z,6.204834
2019-03-30T00:58:43.045Z,6.194763
2019-03-30T00:59:56.796Z,6.174622
2019-03-30T01:01:10.559Z,6.15448
2019-03-30T01:02:24.322Z,6.104126
2019-03-30T01:03:38.103Z,6.094055
2019-03-30T01:04:51.848Z,6.063843
2019-03-30T01:06:05.604Z,6.02356
2019-03-30T01:07:19.360Z,6.013489
2019-03-30T01:08:33.121Z,6.013489
2019-03-30T01:09:47.267Z,5.993347
2019-03-30T01:11:00.655Z,5.983276
2019-03-30T01:12:14.430Z,5.993347
2019-03-30T01:13:28.184Z,5.993347
2019-03-30T01:14:41.955Z,5.973206
2019-03-30T01:15:55.716Z,5.983276
2019-03-30T01:17:09.507Z,5.973206
2019-03-30T01:18:23.250Z,5.973206
2019-03-30T01:19:36.994Z,5.973206
2019-03-30T01:20:50.788Z,5.983276
2019-03-30T01:22:04.556Z,6.013489
2019-03-30T01:23:18.322Z,6.013489
2019-03-30T01:24:32.111Z,6.013489
2019-03-30T01:25:45.873Z,6.053772
2019-03-30T01:26:59.612Z,6.073914
2019-03-30T01:28:13.363Z,6.134338
2019-03-30T01:29:27.125Z,6.174622
2019-03-30T01:30:40.871Z,6.224976
2019-03-30T01:31:54.650Z,6.305542
2019-03-30T01:33:08.450Z,6.345825
2019-03-30T01:34:22.189Z,6.40625
2019-03-30T01:35:35.937Z,6.436462
2019-03-30T01:36:49.720Z,6.496887
2019-03-30T01:38:04.459Z,6.53717
2019-03-30T01:39:18.222Z,6.587524
2019-03-30T01:40:31.951Z,6.637878
2019-03-30T01:41:45.723Z,6.678162
2019-03-30T01:42:59.531Z,6.708374
2019-03-30T01:44:13.282Z,6.718445
2019-03-30T01:45:27.075Z,6.738586
2019-03-30T01:46:40.812Z,6.718445
2019-03-30T01:47:54.607Z,6.748657
2019-03-30T01:49:08.362Z,6.748657
2019-03-30T01:50:22.079Z,6.77887
2019-03-30T01:51:35.833Z,6.799011
2019-03-30T01:52:49.652Z,6.799011
2019-03-30T01:54:03.414Z,6.799011
2019-03-30T01:55:17.159Z,6.819153
2019-03-30T01:56:30.995Z,6.799011
2019-03-30T01:57:44.766Z,6.819153
2019-03-30T01:58:58.533Z,6.819153
2019-03-30T02:00:12.321Z,6.819153
2019-03-30T02:01:26.042Z,6.799011
2019-03-30T02:02:39.827Z,6.77887
2019-03-30T02:03:53.612Z,6.77887
2019-03-30T02:05:07.374Z,6.748657
2019-03-30T02:06:21.135Z,6.738586
2019-03-30T02:07:34.968Z,6.718445
2019-03-30T02:08:48.731Z,6.698303
2019-03-30T02:10:02.489Z,6.708374
2019-03-30T02:11:16.228Z,6.718445
2019-03-30T02:12:30.023Z,6.718445
2019-03-30T02:13:43.792Z,6.748657
2019-03-30T02:14:57.575Z,6.768799
2019-03-30T02:16:11.323Z,6.768799
2019-03-30T02:17:25.070Z,6.768799
2019-03-30T02:18:38.835Z,6.799011
2019-03-30T02:19:52.634Z,6.829224
2019-03-30T02:21:06.374Z,6.859436
2019-03-30T02:22:20.113Z,6.869507
2019-03-30T02:23:33.899Z,6.899719
2019-03-30T02:24:47.670Z,6.919861
2019-03-30T02:26:01.440Z,6.919861
2019-03-30T02:27:15.235Z,6.889648
2019-03-30T02:28:29.000Z,6.889648
2019-03-30T02:29:42.757Z,6.869507
2019-03-30T02:30:56.494Z,6.859436
2019-03-30T02:32:10.241Z,6.829224
2019-03-30T02:33:24.005Z,6.829224
2019-03-30T02:34:37.788Z,6.819153
2019-03-30T02:35:51.527Z,6.799011
2019-03-30T02:37:05.278Z,6.768799
2019-03-30T02:38:19.049Z,6.748657
2019-03-30T02:39:32.818Z,6.708374
2019-03-30T02:40:46.596Z,6.668091
2019-03-30T02:42:00.387Z,6.617737
2019-03-30T02:43:14.127Z,6.597595
2019-03-30T02:44:27.880Z,6.567383
2019-03-30T02:45:41.662Z,6.5271
2019-03-30T02:46:55.406Z,6.486816
2019-03-30T02:48:09.160Z,6.436462
2019-03-30T02:49:23.024Z,6.426392
2019-03-30T02:50:48.928Z,6.426392
2019-03-30T02:51:51.487Z,6.40625
2019-03-30T02:53:05.241Z,6.40625
2019-03-30T02:54:19.027Z,6.355896
2019-03-30T02:55:32.812Z,6.386108
2019-03-30T02:56:46.561Z,6.376038
2019-03-30T02:58:00.332Z,6.355896
2019-03-30T02:59:14.117Z,6.355896
2019-03-30T03:00:27.874Z,6.345825
2019-03-30T03:01:41.615Z,6.335754
2019-03-30T03:02:55.399Z,6.315613
2019-03-30T03:04:09.168Z,6.305542
2019-03-30T03:05:22.927Z,6.305542
2019-03-30T03:06:36.679Z,6.27533
2019-03-30T03:07:50.430Z,6.255188
2019-03-30T03:09:04.227Z,6.245117
2019-03-30T03:10:18.021Z,6.224976
2019-03-30T03:11:31.790Z,6.204834
2019-03-30T03:12:45.548Z,6.204834
2019-03-30T03:13:59.309Z,6.164551
2019-03-30T03:15:13.108Z,6.15448
2019-03-30T03:16:27.428Z,6.124268
2019-03-30T03:17:40.661Z,6.124268
2019-03-30T03:18:54.415Z,6.094055
2019-03-30T03:20:08.190Z,6.073914
2019-03-30T03:21:21.921Z,6.063843
2019-03-30T03:22:35.708Z,6.053772
2019-03-30T03:23:49.486Z,6.053772
2019-03-30T03:25:03.300Z,6.053772
2019-03-30T03:26:17.063Z,6.063843
2019-03-30T03:27:30.811Z,6.094055
2019-03-30T03:28:44.579Z,6.094055
2019-03-30T03:29:58.379Z,6.073914
2019-03-30T03:31:12.136Z,6.063843
2019-03-30T03:32:25.901Z,6.063843
2019-03-30T03:33:39.658Z,6.02356
2019-03-30T03:34:53.439Z,6.013489
2019-03-30T03:36:07.199Z,5.993347
2019-03-30T03:37:20.955Z,5.983276
2019-03-30T03:38:34.704Z,5.993347
2019-03-30T03:39:49.497Z,5.983276
2019-03-30T03:41:03.425Z,5.993347
2019-03-30T03:42:17.181Z,6.013489
2019-03-30T03:43:30.940Z,6.073914
2019-03-30T03:44:44.681Z,6.104126
2019-03-30T03:45:58.487Z,6.134338
2019-03-30T03:47:12.228Z,6.134338
2019-03-30T03:48:25.966Z,6.164551
2019-03-30T03:49:39.719Z,6.174622
2019-03-30T03:50:53.497Z,6.204834
2019-03-30T03:52:07.336Z,6.224976
2019-03-30T03:53:21.025Z,6.255188
2019-03-30T03:54:34.763Z,6.2854
2019-03-30T03:55:49.554Z,6.27533
2019-03-30T03:57:03.298Z,6.255188
2019-03-30T03:58:17.034Z,6.245117
2019-03-30T03:59:30.802Z,6.255188
2019-03-30T04:00:44.608Z,6.245117
2019-03-30T04:01:58.354Z,6.255188
2019-03-30T04:03:12.122Z,6.245117
2019-03-30T04:04:25.881Z,6.245117
2019-03-30T04:05:39.652Z,6.224976
2019-03-30T04:06:53.422Z,6.204834
2019-03-30T04:08:07.216Z,6.204834
2019-03-30T04:09:20.956Z,6.194763
2019-03-30T04:10:34.735Z,6.204834
2019-03-30T04:11:48.491Z,6.204834
2019-03-30T04:13:06.717Z,6.224976
2019-03-30T04:14:16.979Z,6.245117
2019-03-30T04:15:30.779Z,6.27533
2019-03-30T04:16:44.504Z,6.255188
2019-03-30T04:17:58.252Z,6.27533
2019-03-30T04:19:11.996Z,6.27533
2019-03-30T04:20:25.787Z,6.2854
2019-03-30T04:21:44.001Z,6.305542
2019-03-30T04:22:54.277Z,6.2854
2019-03-30T04:24:08.029Z,6.27533
2019-03-30T04:25:21.831Z,6.255188
2019-03-30T04:26:35.609Z,6.245117
2019-03-30T04:27:49.386Z,6.245117
2019-03-30T04:29:03.145Z,6.224976
2019-03-30T04:30:16.893Z,6.224976
2019-03-30T04:31:30.670Z,6.245117
2019-03-30T04:32:44.418Z,6.204834
2019-03-30T04:33:58.164Z,6.174622
2019-03-30T04:35:11.930Z,6.174622
2019-03-30T04:36:25.734Z,6.164551
2019-03-30T04:37:39.477Z,6.15448
2019-03-30T04:38:53.234Z,6.104126
2019-03-30T04:40:06.995Z,6.104126
2019-03-30T04:41:20.776Z,6.073914
2019-03-30T04:42:34.596Z,6.063843
2019-03-30T04:43:48.296Z,6.02356
2019-03-30T04:45:02.055Z,5.993347
2019-03-30T04:46:15.822Z,6.013489
2019-03-30T04:47:29.570Z,5.993347
2019-03-30T04:48:43.309Z,6.013489
2019-03-30T04:49:57.054Z,6.013489
2019-03-30T04:51:10.844Z,5.993347
2019-03-30T04:52:24.615Z,5.993347
2019-03-30T04:53:38.393Z,5.983276
2019-03-30T04:54:52.144Z,5.993347
2019-03-30T04:56:06.147Z,5.993347
2019-03-30T04:57:19.907Z,5.993347
2019-03-30T04:58:33.705Z,6.02356
2019-03-30T04:59:47.446Z,5.993347
2019-03-30T05:01:01.226Z,5.983276
2019-03-30T05:02:14.980Z,5.993347
2019-03-30T05:03:28.762Z,5.993347
2019-03-30T05:04:42.549Z,6.013489
2019-03-30T05:05:56.312Z,5.983276
2019-03-30T05:07:10.050Z,5.983276
2019-03-30T05:08:23.836Z,5.993347
2019-03-30T05:09:37.584Z,5.993347
2019-03-30T05:10:51.342Z,6.013489
2019-03-30T05:12:05.152Z,6.02356
2019-03-30T05:13:18.901Z,6.053772
2019-03-30T05:14:32.674Z,6.073914
2019-03-30T05:15:46.429Z,6.073914
2019-03-30T05:17:00.202Z,6.094055
2019-03-30T05:18:13.967Z,6.124268
2019-03-30T05:19:27.756Z,6.134338
2019-03-30T05:20:41.497Z,6.164551
2019-03-30T05:21:55.276Z,6.164551
2019-03-30T05:23:10.019Z,6.174622
2019-03-30T05:24:23.784Z,6.204834
2019-03-30T05:25:37.571Z,6.204834
2019-03-30T05:26:51.350Z,6.245117
2019-03-30T05:28:05.123Z,6.245117
2019-03-30T05:29:18.898Z,6.27533
2019-03-30T05:30:32.665Z,6.2854
2019-03-30T05:31:46.453Z,6.305542
2019-03-30T05:33:05.776Z,6.335754
2019-03-30T05:34:14.931Z,6.355896
2019-03-30T05:35:28.708Z,6.40625
2019-03-30T05:36:42.478Z,6.436462
2019-03-30T05:37:56.326Z,6.466675
2019-03-30T05:39:11.100Z,6.486816
2019-03-30T05:40:24.841Z,6.496887
2019-03-30T05:41:39.588Z,6.517029
2019-03-30T05:42:53.346Z,6.5271
2019-03-30T05:44:07.127Z,6.5271
2019-03-30T05:45:20.880Z,6.5271
2019-03-30T05:46:34.658Z,6.53717
2019-03-30T05:47:48.526Z,6.587524
2019-03-30T05:49:02.420Z,6.597595
2019-03-30T05:50:16.275Z,6.597595
2019-03-30T05:51:30.015Z,6.597595
2019-03-30T05:52:43.855Z,6.637878
2019-03-30T05:53:57.624Z,6.647949
2019-03-30T05:55:11.369Z,6.668091
2019-03-30T05:56:25.152Z,6.698303
2019-03-30T05:57:38.947Z,6.718445
2019-03-30T05:58:52.816Z,6.748657
2019-03-30T06:00:06.577Z,6.799011
2019-03-30T06:01:20.339Z,6.859436
2019-03-30T06:02:34.450Z,6.889648
2019-03-30T06:03:48.553Z,6.950073
2019-03-30T06:05:03.509Z,7.000427
2019-03-30T06:06:16.085Z,7.04071
2019-03-30T06:07:29.869Z,7.101135
2019-03-30T06:08:43.624Z,7.181702
2019-03-30T06:09:57.352Z,7.262268
2019-03-30T06:11:11.102Z,7.403259
2019-03-30T06:12:24.894Z,7.644958
2019-03-30T06:13:38.713Z,8.158569
2019-03-30T06:14:52.492Z,8.863525
2019-03-30T06:16:06.241Z,9.508057
2019-03-30T06:17:21.033Z,10.021667
2019-03-30T06:18:34.804Z,10.454712
2019-03-30T06:19:48.551Z,10.827332
2019-03-30T06:21:02.316Z,11.17981
2019-03-30T06:22:16.112Z,11.481934
2019-03-30T06:23:29.879Z,11.733704
2019-03-30T06:24:43.637Z,11.955261
2019-03-30T06:25:57.405Z,12.136536
2019-03-30T06:27:11.186Z,12.247314
2019-03-30T06:28:24.955Z,12.348022
2019-03-30T06:29:38.729Z,12.368164
2019-03-30T06:30:52.490Z,12.348022
2019-03-30T06:32:06.243Z,12.277527
2019-03-30T06:33:20.021Z,12.227173
2019-03-30T06:34:33.773Z,12.19696
2019-03-30T06:35:47.585Z,12.207031
2019-03-30T06:37:01.316Z,12.19696
2019-03-30T06:38:15.209Z,12.257385
2019-03-30T06:39:28.992Z,12.348022
2019-03-30T06:40:42.743Z,12.44873
2019-03-30T06:41:56.495Z,12.579651
2019-03-30T06:43:10.246Z,12.680359
2019-03-30T06:44:24.021Z,12.801208
2019-03-30T06:45:37.760Z,12.932129
2019-03-30T06:46:51.530Z,13.052979
2019-03-30T06:48:05.738Z,13.163757
2019-03-30T06:49:19.863Z,13.19397
2019-03-30T06:50:33.862Z,13.204041
2019-03-30T06:51:47.699Z,13.244324
2019-03-30T06:53:01.542Z,13.284607
2019-03-30T06:54:15.310Z,13.304749
2019-03-30T06:55:29.096Z,13.385315
2019-03-30T06:56:42.977Z,13.385315
2019-03-30T06:57:56.680Z,13.455811
2019-03-30T06:59:10.586Z,13.57666
2019-03-30T07:00:24.420Z,13.747864
2019-03-30T07:01:38.232Z,13.969421
2019-03-30T07:02:52.332Z,14.190979
2019-03-30T07:04:06.334Z,14.412537
2019-03-30T07:05:21.076Z,14.533386
2019-03-30T07:06:34.841Z,14.281616
2019-03-30T07:07:48.646Z,14.039917
2019-03-30T07:09:09.455Z,14.0802
2019-03-30T07:10:23.200Z,14.009705
2019-03-30T07:11:36.950Z,14.070129
2019-03-30T07:12:50.714Z,14.221191
2019-03-30T07:14:04.472Z,14.251404
2019-03-30T07:15:18.206Z,14.180908
2019-03-30T07:16:31.936Z,14.029846
2019-03-30T07:17:46.691Z,13.858643
2019-03-30T07:19:01.486Z,13.616943
2019-03-30T07:20:15.272Z,13.355103
2019-03-30T07:21:29.013Z,13.083191
2019-03-30T07:22:42.761Z,12.861633
2019-03-30T07:23:56.520Z,12.7005
2019-03-30T07:25:10.309Z,12.579651
2019-03-30T07:26:24.049Z,12.499084
2019-03-30T07:27:37.798Z,12.44873
2019-03-30T07:28:51.606Z,12.368164
2019-03-30T07:30:05.362Z,12.31781
2019-03-30T07:31:19.104Z,12.257385
2019-03-30T07:32:32.874Z,12.227173
2019-03-30T07:33:46.658Z,12.227173
2019-03-30T07:35:00.453Z,12.207031
2019-03-30T07:36:14.184Z,12.166748
2019-03-30T07:37:27.915Z,12.166748
2019-03-30T07:38:41.744Z,12.146606
2019-03-30T07:39:55.534Z,12.146606
2019-03-30T07:41:08.276Z,12.136536
2019-03-30T07:42:22.000Z,12.146606
2019-03-30T07:43:35.768Z,12.146606
2019-03-30T07:44:49.593Z,12.176819
2019-03-30T07:46:02.343Z,12.176819
2019-03-30T07:47:16.993Z,12.19696
2019-03-30T07:48:30.830Z,12.207031
2019-03-30T07:49:44.514Z,12.19696
2019-03-30T07:50:58.278Z,12.176819
2019-03-30T07:52:12.024Z,12.166748
2019-03-30T07:53:27.001Z,12.166748
2019-03-30T07:54:39.591Z,12.19696
2019-03-30T07:56:07.309Z,12.247314
2019-03-30T07:57:16.728Z,12.227173
2019-03-30T07:58:22.733Z,12.207031
2019-03-30T07:59:36.828Z,12.19696
2019-03-30T08:00:50.227Z,12.176819
2019-03-30T08:02:03.967Z,12.19696
2019-03-30T08:03:17.689Z,12.19696
2019-03-30T08:04:31.468Z,12.19696
2019-03-30T08:05:45.184Z,12.257385
2019-03-30T08:06:58.928Z,12.327881
2019-03-30T08:08:11.661Z,12.388306
2019-03-30T08:09:25.462Z,12.468872
2019-03-30T08:10:39.250Z,12.539368
2019-03-30T08:11:52.990Z,12.619934
2019-03-30T08:13:06.758Z,12.680359
2019-03-30T08:14:20.491Z,12.760925
2019-03-30T08:15:34.256Z,12.861633
2019-03-30T08:16:48.054Z,12.952271
2019-03-30T08:18:01.811Z,13.022766
2019-03-30T08:19:15.548Z,13.063049
2019-03-30T08:20:29.284Z,13.133545
2019-03-30T08:21:43.041Z,13.214111
2019-03-30T08:22:56.786Z,13.304749
2019-03-30T08:24:10.513Z,13.385315
2019-03-30T08:25:24.281Z,13.455811
2019-03-30T08:26:38.020Z,13.465881
2019-03-30T08:27:51.767Z,13.536377
2019-03-30T08:29:05.542Z,13.57666
2019-03-30T08:30:19.290Z,13.616943
2019-03-30T08:31:33.012Z,13.69751
2019-03-30T08:32:46.751Z,13.747864
2019-03-30T08:34:00.521Z,13.818359
2019-03-30T08:35:14.307Z,13.868713
2019-03-30T08:36:28.022Z,13.94928
2019-03-30T08:37:41.785Z,13.969421
2019-03-30T08:38:55.525Z,14.049988
2019-03-30T08:40:09.301Z,14.120483
2019-03-30T08:41:23.054Z,14.120483
2019-03-30T08:42:36.806Z,14.180908
2019-03-30T08:43:50.562Z,14.251404
2019-03-30T08:45:04.340Z,14.301758
2019-03-30T08:46:18.091Z,14.362183
2019-03-30T08:47:31.836Z,14.402466
2019-03-30T08:48:45.620Z,14.442749
2019-03-30T08:49:59.396Z,14.523315
2019-03-30T08:51:13.166Z,14.58374
2019-03-30T08:52:27.000Z,14.634094
2019-03-30T08:53:53.686Z,14.674377
2019-03-30T08:54:55.706Z,14.674377
2019-03-30T08:56:09.462Z,14.734802
2019-03-30T08:57:23.209Z,14.775085
2019-03-30T08:58:36.961Z,14.855652
2019-03-30T08:59:50.686Z,14.885864
2019-03-30T09:01:04.428Z,14.885864
2019-03-30T09:02:18.203Z,14.926147
2019-03-30T09:03:33.909Z,14.936218
2019-03-30T09:04:45.652Z,14.95636
2019-03-30T09:05:59.413Z,14.996643
2019-03-30T09:07:13.165Z,15.036926
2019-03-30T09:08:26.936Z,15.046997
2019-03-30T09:09:40.678Z,15.107422
2019-03-30T09:10:54.445Z,15.137634
2019-03-30T09:12:08.241Z,15.177917
2019-03-30T09:13:22.014Z,15.187988
2019-03-30T09:14:35.748Z,15.228271
2019-03-30T09:15:49.505Z,15.288696
2019-03-30T09:17:03.231Z,15.359192
2019-03-30T09:18:16.955Z,15.389404
2019-03-30T09:19:30.720Z,15.439758
2019-03-30T09:20:44.465Z,15.480042
2019-03-30T09:21:58.183Z,15.500183
2019-03-30T09:23:11.930Z,15.520325
2019-03-30T09:24:25.674Z,15.520325
2019-03-30T09:25:40.022Z,15.500183
2019-03-30T09:26:53.757Z,15.480042
2019-03-30T09:28:08.140Z,15.500183
2019-03-30T09:29:21.833Z,15.520325
2019-03-30T09:30:35.619Z,15.550537
2019-03-30T09:31:49.372Z,15.550537
2019-03-30T09:33:03.090Z,15.570679
2019-03-30T09:34:16.877Z,15.570679
2019-03-30T09:35:30.626Z,15.59082
2019-03-30T09:36:44.491Z,15.621033
2019-03-30T09:37:58.131Z,15.661316
2019-03-30T09:39:11.877Z,15.701599
2019-03-30T09:40:25.703Z,15.731812
2019-03-30T09:41:39.431Z,15.812378
2019-03-30T09:42:53.164Z,15.83252
2019-03-30T09:44:06.899Z,15.84259
2019-03-30T09:45:20.631Z,15.872803
2019-03-30T09:46:34.393Z,15.923157
2019-03-30T09:47:48.116Z,15.943298
2019-03-30T09:49:01.867Z,15.983582
2019-03-30T09:50:15.608Z,16.033936
2019-03-30T09:51:29.356Z,16.064148
2019-03-30T09:52:43.076Z,16.054077
2019-03-30T09:53:56.898Z,16.033936
2019-03-30T09:55:10.650Z,16.023865
2019-03-30T09:56:24.412Z,16.003723
2019-03-30T09:57:38.162Z,15.983582
2019-03-30T09:58:51.896Z,16.003723
2019-03-30T10:00:05.634Z,16.023865
2019-03-30T10:01:19.403Z,15.993652
2019-03-30T10:02:33.165Z,15.993652
2019-03-30T10:03:46.930Z,16.023865
2019-03-30T10:05:00.670Z,16.064148
2019-03-30T10:06:14.433Z,16.054077
2019-03-30T10:07:28.166Z,16.054077
2019-03-30T10:08:41.968Z,16.054077
2019-03-30T10:09:55.759Z,16.09436
2019-03-30T10:11:09.455Z,16.184998
2019-03-30T10:12:23.205Z,16.255493
2019-03-30T10:13:36.959Z,16.366272
2019-03-30T10:14:50.697Z,16.396484
2019-03-30T10:16:04.498Z,16.456909
2019-03-30T10:17:18.269Z,16.537476
2019-03-30T10:18:32.002Z,16.577759
2019-03-30T10:19:49.700Z,16.607971
2019-03-30T10:21:00.533Z,16.648254
2019-03-30T10:22:14.782Z,16.658325
2019-03-30T10:23:28.520Z,16.618042
2019-03-30T10:24:42.240Z,16.618042
2019-03-30T10:25:56.028Z,16.638184
2019-03-30T10:27:09.761Z,16.688538
2019-03-30T10:28:23.511Z,16.728821
2019-03-30T10:29:37.268Z,16.759033
2019-03-30T10:30:51.127Z,16.789246
2019-03-30T10:32:04.869Z,16.8396
2019-03-30T10:33:18.603Z,16.889954
2019-03-30T10:34:32.370Z,16.940308
2019-03-30T10:35:46.139Z,16.97052
2019-03-30T10:36:59.888Z,16.950378
2019-03-30T10:38:13.635Z,16.950378
2019-03-30T10:39:27.400Z,16.920166
2019-03-30T10:40:41.153Z,16.920166
2019-03-30T10:41:53.915Z,16.910095
2019-03-30T10:43:07.694Z,16.920166
2019-03-30T10:44:21.455Z,16.950378
2019-03-30T10:45:35.187Z,16.940308
2019-03-30T10:46:49.732Z,16.940308
2019-03-30T10:48:03.454Z,16.889954
2019-03-30T10:49:17.192Z,16.940308
2019-03-30T10:50:30.940Z,16.97052
2019-03-30T10:51:44.694Z,17.020874
2019-03-30T10:52:58.436Z,17.09137
2019-03-30T10:54:12.173Z,17.141724
2019-03-30T10:55:25.925Z,17.171936
2019-03-30T10:56:39.721Z,17.22229
2019-03-30T10:57:53.461Z,17.282715
2019-03-30T10:59:08.209Z,17.34314
2019-03-30T11:00:21.989Z,17.393494
2019-03-30T11:01:35.757Z,17.494202
2019-03-30T11:02:49.515Z,17.564697
2019-03-30T11:04:03.332Z,17.625122
2019-03-30T11:05:17.007Z,17.685547
2019-03-30T11:06:30.754Z,17.705688
2019-03-30T11:07:44.541Z,17.745972
2019-03-30T11:08:58.283Z,17.776184
2019-03-30T11:10:12.052Z,17.816467
2019-03-30T11:11:25.791Z,17.866821
2019-03-30T11:12:39.543Z,17.897034
2019-03-30T11:13:53.282Z,17.927246
2019-03-30T11:15:07.031Z,17.937317
2019-03-30T11:16:20.773Z,17.947388
2019-03-30T11:17:34.538Z,17.9776
2019-03-30T11:18:48.266Z,18.027954
2019-03-30T11:20:02.008Z,18.078308
2019-03-30T11:21:15.745Z,18.128662
2019-03-30T11:22:29.508Z,18.148804
2019-03-30T11:23:43.268Z,18.189087
2019-03-30T11:25:07.009Z,18.239441
2019-03-30T11:26:11.709Z,18.299866
2019-03-30T11:27:25.499Z,18.309937
2019-03-30T11:28:39.240Z,18.279724
2019-03-30T11:29:52.984Z,18.299866
2019-03-30T11:31:06.709Z,18.239441
2019-03-30T11:32:20.444Z,18.189087
2019-03-30T11:33:34.178Z,18.148804
2019-03-30T11:34:47.919Z,18.128662
2019-03-30T11:36:01.649Z,18.148804
2019-03-30T11:37:15.448Z,18.189087
2019-03-30T11:38:29.196Z,18.22937
2019-03-30T11:39:42.965Z,18.239441
2019-03-30T11:40:56.731Z,18.269653
2019-03-30T11:42:10.580Z,18.128662
2019-03-30T11:43:24.261Z,18.128662
2019-03-30T11:44:37.987Z,18.148804
2019-03-30T11:45:51.754Z,18.128662
2019-03-30T11:47:05.468Z,18.118591
2019-03-30T11:48:19.227Z,18.148804
2019-03-30T11:49:32.970Z,18.128662
2019-03-30T11:50:46.724Z,18.158875
2019-03-30T11:52:00.462Z,18.22937
2019-03-30T11:53:14.218Z,18.279724
2019-03-30T11:54:27.958Z,18.309937
2019-03-30T11:55:41.711Z,18.360291
2019-03-30T11:56:55.468Z,18.309937
2019-03-30T11:58:09.223Z,18.279724
2019-03-30T11:59:22.952Z,18.309937
2019-03-30T12:00:36.711Z,18.309937
2019-03-30T12:01:50.451Z,18.309937
2019-03-30T12:03:04.211Z,18.279724
2019-03-30T12:04:17.983Z,18.189087
2019-03-30T12:05:31.729Z,18.239441
2019-03-30T12:06:45.468Z,18.279724
2019-03-30T12:07:59.240Z,18.309937
2019-03-30T12:09:13.102Z,18.309937
2019-03-30T12:10:26.879Z,18.340149
2019-03-30T12:11:40.633Z,18.360291
2019-03-30T12:12:54.390Z,18.360291
2019-03-30T12:14:08.131Z,18.370361
2019-03-30T12:15:21.862Z,18.360291
2019-03-30T12:16:35.614Z,18.360291
2019-03-30T12:17:49.376Z,18.410645
2019-03-30T12:19:03.098Z,18.390503
2019-03-30T12:20:16.853Z,18.340149
2019-03-30T12:21:30.589Z,18.370361
2019-03-30T12:22:44.357Z,18.410645
2019-03-30T12:23:58.110Z,18.430786
2019-03-30T12:25:11.864Z,18.420715
2019-03-30T12:26:25.598Z,18.340149
2019-03-30T12:27:39.371Z,18.269653
2019-03-30T12:28:53.125Z,18.239441
2019-03-30T12:30:06.862Z,18.209229
2019-03-30T12:31:20.674Z,18.118591
2019-03-30T12:32:34.402Z,18.048096
2019-03-30T12:33:48.155Z,18.027954
2019-03-30T12:35:01.899Z,18.048096
2019-03-30T12:36:15.645Z,18.017883
2019-03-30T12:37:29.362Z,18.048096
2019-03-30T12:38:43.188Z,18.078308
2019-03-30T12:39:58.298Z,18.088379
2019-03-30T12:41:10.658Z,18.078308
2019-03-30T12:42:24.409Z,18.118591
2019-03-30T12:43:39.083Z,18.128662
2019-03-30T12:44:50.950Z,18.158875
2019-03-30T12:46:04.692Z,18.118591
2019-03-30T12:47:18.464Z,18.058167
2019-03-30T12:48:32.214Z,18.027954
2019-03-30T12:49:45.946Z,17.997742
2019-03-30T12:50:59.669Z,17.9776
2019-03-30T12:52:13.412Z,17.997742
2019-03-30T12:53:27.218Z,18.017883
2019-03-30T12:54:40.990Z,18.048096
2019-03-30T12:55:54.739Z,18.078308
2019-03-30T12:57:08.472Z,18.108521
2019-03-30T12:58:22.231Z,18.048096
2019-03-30T12:59:35.980Z,18.088379
2019-03-30T13:00:49.744Z,18.128662
2019-03-30T13:02:03.511Z,18.179016
2019-03-30T13:03:17.256Z,18.179016
2019-03-30T13:04:31.021Z,18.189087
2019-03-30T13:05:44.757Z,18.259583
2019-03-30T13:06:59.539Z,18.299866
2019-03-30T13:08:13.282Z,18.330078
2019-03-30T13:09:27.228Z,18.340149
2019-03-30T13:10:41.000Z,18.360291
2019-03-30T13:11:55.781Z,18.450928
2019-03-30T13:13:09.539Z,18.450928
2019-03-30T13:14:23.353Z,18.460999
2019-03-30T13:15:37.084Z,18.491211
2019-03-30T13:16:50.926Z,18.531494
2019-03-30T13:18:04.590Z,18.521423
2019-03-30T13:19:18.364Z,18.511353
2019-03-30T13:20:32.149Z,18.460999
2019-03-30T13:21:52.071Z,18.460999
2019-03-30T13:23:00.612Z,18.410645
2019-03-30T13:24:14.364Z,18.410645
2019-03-30T13:25:28.158Z,18.410645
2019-03-30T13:26:41.923Z,18.410645
2019-03-30T13:27:55.689Z,18.430786
2019-03-30T13:29:09.465Z,18.450928
2019-03-30T13:30:23.211Z,18.48114
2019-03-30T13:31:37.029Z,18.521423
2019-03-30T13:32:53.343Z,18.551636
2019-03-30T13:34:04.565Z,18.571777
2019-03-30T13:35:18.317Z,18.551636
2019-03-30T13:36:32.058Z,18.571777
2019-03-30T13:37:45.864Z,18.60199
2019-03-30T13:38:59.637Z,18.632202
2019-03-30T13:40:13.415Z,18.581848
2019-03-30T13:41:27.169Z,18.581848
2019-03-30T13:42:40.898Z,18.60199
2019-03-30T13:43:54.670Z,18.632202
2019-03-30T13:45:08.428Z,18.662415
2019-03-30T13:46:22.154Z,18.672485
2019-03-30T13:47:35.908Z,18.672485
2019-03-30T13:48:50.609Z,18.682556
2019-03-30T13:50:04.430Z,18.712769
2019-03-30T13:51:18.178Z,18.73291
2019-03-30T13:52:31.944Z,18.763123
2019-03-30T13:53:45.676Z,18.712769
2019-03-30T13:54:59.483Z,18.672485
2019-03-30T13:56:17.281Z,18.632202
2019-03-30T13:57:27.936Z,18.60199
2019-03-30T13:58:41.667Z,18.581848
2019-03-30T13:59:55.447Z,18.571777
2019-03-30T14:01:09.267Z,18.581848
2019-03-30T14:02:23.016Z,18.571777
2019-03-30T14:03:36.785Z,18.612061
2019-03-30T14:04:52.355Z,18.632202
2019-03-30T14:06:04.300Z,18.632202
2019-03-30T14:07:18.072Z,18.662415
2019-03-30T14:08:31.823Z,18.682556
2019-03-30T14:09:45.564Z,18.662415
2019-03-30T14:10:59.328Z,18.662415
2019-03-30T14:12:13.053Z,18.642273
2019-03-30T14:13:27.846Z,18.672485
2019-03-30T14:14:41.596Z,18.672485
2019-03-30T14:15:55.397Z,18.672485